Time;durP1;ratioP1;P1;durP2;ratioP2;P2;SDS_P1;SDS_P2;PMS_P1;PMS_P2;Temp;Humidity;BMP_temperature;BMP_pressure;BME280_temperature;BME280_humidity;BME280_pressure;Samples;Min_cycle;Max_cycle;Signal;HPM_P1;HPM_P2
2021/01/10 00:01:30;;;;;;;42.50;16.55;;;-3.80;99.90;;;;;;4173894;28;20539;-37
2021/01/10 00:03:32;;;;;;;45.10;16.27;;;-3.80;99.90;;;;;;4173305;28;20044;-36
2021/01/10 00:05:35;;;;;;;46.70;18.50;;;-3.80;99.90;;;;;;4173657;28;20095;-36
2021/01/10 00:07:36;;;;;;;49.30;17.92;;;-3.80;99.90;;;;;;4173163;28;20030;-38
2021/01/10 00:09:38;;;;;;;44.78;17.48;;;-3.80;99.90;;;;;;4173023;28;20094;-37
2021/01/10 00:11:42;;;;;;;46.03;18.13;;;-3.80;99.90;;;;;;4172363;28;20489;-37
2021/01/10 00:13:43;;;;;;;42.53;16.88;;;-3.80;99.90;;;;;;4172110;28;20036;-38
2021/01/10 00:15:46;;;;;;;48.92;17.88;;;-3.80;99.90;;;;;;4173231;28;20179;-37
2021/01/10 00:17:48;;;;;;;46.83;17.73;;;-3.80;99.90;;;;;;4173399;28;20029;-37
2021/01/10 00:19:49;;;;;;;49.42;17.80;;;-3.80;99.90;;;;;;4172515;28;20025;-36
2021/01/10 00:21:50;;;;;;;44.75;16.33;;;-3.80;99.90;;;;;;4173084;28;20134;-37
2021/01/10 00:23:51;;;;;;;49.05;19.48;;;-3.80;99.90;;;;;;4172865;28;20094;-35
2021/01/10 00:25:52;;;;;;;46.88;18.98;;;-3.80;99.90;;;;;;4172997;28;20041;-38
2021/01/10 00:27:54;;;;;;;49.88;17.45;;;-3.80;99.90;;;;;;4173010;28;20049;-38
2021/01/10 00:29:55;;;;;;;48.88;17.88;;;-3.90;99.90;;;;;;4173913;28;20094;-37
2021/01/10 00:31:56;;;;;;;51.72;19.45;;;-3.90;99.90;;;;;;4173284;28;20029;-38
2021/01/10 00:33:58;;;;;;;46.40;18.63;;;-3.90;99.90;;;;;;4205144;28;20081;-38
2021/01/10 00:36:00;;;;;;;50.65;19.05;;;-3.80;99.90;;;;;;4172408;28;20126;-37
2021/01/10 00:38:01;;;;;;;48.08;18.02;;;-3.80;99.90;;;;;;4171246;28;20567;-38
2021/01/10 00:40:03;;;;;;;58.55;20.88;;;-3.80;99.90;;;;;;4172803;28;20782;-36
2021/01/10 00:42:08;;;;;;;46.70;18.27;;;-3.80;99.90;;;;;;4172697;28;20029;-37
2021/01/10 00:44:09;;;;;;;48.58;17.27;;;-3.80;99.90;;;;;;4172689;28;20033;-41
2021/01/10 00:46:13;;;;;;;52.80;19.02;;;-3.90;99.90;;;;;;4172600;28;20041;-37
2021/01/10 00:48:15;;;;;;;41.70;17.17;;;-3.90;99.90;;;;;;4172605;28;20049;-43
2021/01/10 00:50:16;;;;;;;45.03;18.83;;;-3.90;99.90;;;;;;4172549;28;20087;-39
2021/01/10 00:52:17;;;;;;;53.72;19.38;;;-3.90;99.90;;;;;;4172142;28;20049;-36
2021/01/10 00:54:19;;;;;;;46.05;17.90;;;-3.90;99.90;;;;;;4171516;28;20098;-38
2021/01/10 00:56:20;;;;;;;45.53;18.17;;;-3.90;99.90;;;;;;4172150;28;20106;-38
2021/01/10 00:58:21;;;;;;;49.45;18.73;;;-3.90;99.90;;;;;;4172736;28;20071;-36
2021/01/10 01:00:24;;;;;;;46.50;17.52;;;-3.90;99.90;;;;;;4173334;28;20040;-37
2021/01/10 01:02:25;;;;;;;46.40;18.25;;;-3.90;99.90;;;;;;4172172;28;20045;-37
2021/01/10 01:04:26;;;;;;;47.30;17.20;;;-3.90;99.90;;;;;;4172684;28;20040;-37
2021/01/10 01:06:27;;;;;;;46.25;18.13;;;-3.90;99.90;;;;;;4172766;28;20628;-38
2021/01/10 01:08:29;;;;;;;43.33;17.40;;;-3.90;99.90;;;;;;4172587;28;20033;-36
2021/01/10 01:10:30;;;;;;;42.72;17.88;;;-3.90;99.90;;;;;;4180889;28;20032;-40
2021/01/10 01:12:31;;;;;;;50.47;19.45;;;-3.90;99.90;;;;;;4186905;28;20032;-38
2021/01/10 01:14:33;;;;;;;44.50;17.13;;;-3.90;99.90;;;;;;4188497;28;20086;-38
2021/01/10 01:16:42;;;;;;;47.20;16.90;;;-3.90;99.90;;;;;;4188803;28;20417;-36
2021/01/10 01:18:43;;;;;;;41.08;17.20;;;-3.90;99.90;;;;;;4189541;28;20036;-38
2021/01/10 01:20:45;;;;;;;44.08;17.38;;;-3.90;99.90;;;;;;4174667;28;20090;-37
2021/01/10 01:22:47;;;;;;;40.83;16.50;;;-3.90;99.90;;;;;;4172754;28;20059;-37
2021/01/10 01:24:48;;;;;;;41.00;16.48;;;-3.90;99.90;;;;;;4170847;28;20037;-36
2021/01/10 01:26:49;;;;;;;44.38;16.08;;;-3.90;99.90;;;;;;4172468;28;20083;-37
2021/01/10 01:28:51;;;;;;;41.72;17.52;;;-3.80;99.90;;;;;;4172428;28;20443;-37
2021/01/10 01:30:52;;;;;;;47.97;18.73;;;-3.80;99.90;;;;;;4172147;28;20086;-38
2021/01/10 01:32:54;;;;;;;51.72;18.35;;;-3.80;99.90;;;;;;4171798;28;20033;-53
2021/01/10 01:34:55;;;;;;;44.35;18.20;;;-3.90;99.90;;;;;;4172560;28;20077;-37
2021/01/10 01:36:56;;;;;;;47.60;19.65;;;-3.80;99.90;;;;;;4172956;28;20037;-45
2021/01/10 01:39:00;;;;;;;48.78;18.40;;;-3.90;99.90;;;;;;4171662;28;20040;-37
2021/01/10 01:41:01;;;;;;;52.00;18.75;;;-3.90;99.90;;;;;;4171934;28;20920;-37
2021/01/10 01:43:02;;;;;;;56.00;19.63;;;-3.90;99.90;;;;;;4171843;28;20098;-39
2021/01/10 01:45:08;;;;;;;53.28;19.30;;;-3.90;99.90;;;;;;4172257;28;20767;-38
2021/01/10 01:47:18;;;;;;;55.97;20.17;;;-4.00;99.90;;;;;;4171743;28;20021;-37
2021/01/10 01:49:21;;;;;;;53.53;18.67;;;-4.00;99.90;;;;;;4171861;28;20049;-38
2021/01/10 01:51:23;;;;;;;59.17;20.25;;;-4.00;99.90;;;;;;4203201;28;20497;-35
2021/01/10 01:53:25;;;;;;;45.60;17.65;;;-4.00;99.90;;;;;;4172120;28;20130;-55
2021/01/10 01:55:26;;;;;;;56.80;18.98;;;-4.00;99.90;;;;;;4171877;28;20049;-37
2021/01/10 01:57:27;;;;;;;60.47;20.13;;;-4.00;99.90;;;;;;4171925;28;20098;-38
2021/01/10 01:59:29;;;;;;;51.17;19.48;;;-4.00;99.90;;;;;;4172010;28;20064;-56
2021/01/10 02:01:32;;;;;;;53.92;21.60;;;-4.00;99.90;;;;;;4172300;28;20082;-37
2021/01/10 02:03:37;;;;;;;52.30;18.48;;;-4.00;99.90;;;;;;4172003;28;20473;-39
2021/01/10 02:05:39;;;;;;;55.42;20.27;;;-4.00;99.90;;;;;;4171945;28;20089;-54
2021/01/10 02:07:51;;;;;;;52.65;20.30;;;-4.00;99.90;;;;;;4171706;28;20146;-37
2021/01/10 02:10:13;;;;;;;50.67;18.63;;;-4.00;99.90;;;;;;4172147;28;20041;-36
2021/01/10 02:12:17;;;;;;;50.85;19.15;;;-3.90;99.90;;;;;;4171958;28;20049;-37
2021/01/10 02:14:23;;;;;;;58.85;19.42;;;-3.90;99.90;;;;;;4172721;28;20033;-37
2021/01/10 02:16:24;;;;;;;53.10;17.60;;;-3.90;99.90;;;;;;4175298;28;20094;-37
2021/01/10 02:18:27;;;;;;;55.80;21.13;;;-3.90;99.90;;;;;;4174889;28;20041;-36
2021/01/10 02:20:31;;;;;;;50.40;19.73;;;-3.90;99.90;;;;;;4175135;28;20033;-37
2021/01/10 02:22:52;;;;;;;49.03;19.42;;;-3.90;99.90;;;;;;4174791;28;20021;-37
2021/01/10 02:24:54;;;;;;;56.90;19.65;;;-3.90;99.90;;;;;;4174957;28;20021;-38
2021/01/10 02:26:56;;;;;;;55.42;18.23;;;-3.90;99.90;;;;;;4174997;28;20099;-39
2021/01/10 02:28:58;;;;;;;53.67;20.40;;;-3.80;99.90;;;;;;4174932;28;20122;-38
2021/01/10 02:31:01;;;;;;;49.40;18.08;;;-3.80;99.90;;;;;;4173751;28;20091;-52
2021/01/10 02:33:08;;;;;;;52.70;18.30;;;-3.80;99.90;;;;;;4175080;28;20038;-37
2021/01/10 02:35:10;;;;;;;58.65;19.55;;;-3.80;99.90;;;;;;4174624;28;20432;-45
2021/01/10 02:37:51;;;;;;;53.65;17.83;;;-3.80;99.90;;;;;;4158387;28;20021;-41
2021/01/10 02:40:10;;;;;;;48.10;18.02;;;-3.90;99.90;;;;;;4158167;28;20071;-37
2021/01/10 02:42:24;;;;;;;50.80;18.67;;;-3.90;99.90;;;;;;4158435;28;20029;-36
2021/01/10 02:44:35;;;;;;;55.65;20.13;;;-3.90;99.90;;;;;;4171528;28;20049;-37
2021/01/10 02:46:38;;;;;;;42.38;16.75;;;-3.90;99.90;;;;;;4174997;28;20515;-40
2021/01/10 02:48:40;;;;;;;55.22;19.17;;;-4.00;99.90;;;;;;4174535;28;20059;-38
2021/01/10 02:50:42;;;;;;;47.38;17.92;;;-3.90;99.90;;;;;;4174575;28;20056;-51
2021/01/10 02:52:46;;;;;;;43.63;17.58;;;-3.90;99.90;;;;;;4174574;28;20033;-40
2021/01/10 02:54:47;;;;;;;48.45;18.98;;;-4.00;99.90;;;;;;4174463;28;20033;-37
2021/01/10 02:57:03;;;;;;;47.40;17.42;;;-4.00;99.90;;;;;;4173015;28;20053;-36
2021/01/10 02:59:05;;;;;;;52.03;17.98;;;-4.00;99.90;;;;;;4174258;28;20053;-37
2021/01/10 03:01:09;;;;;;;50.35;18.60;;;-4.00;99.90;;;;;;4175078;28;20037;-37
2021/01/10 03:03:11;;;;;;;52.03;18.80;;;-4.10;99.90;;;;;;4174564;28;20059;-36
2021/01/10 03:05:14;;;;;;;49.63;17.83;;;-4.10;99.90;;;;;;4174175;28;20045;-37
2021/01/10 03:07:16;;;;;;;54.15;19.08;;;-4.10;99.90;;;;;;4174634;28;20022;-42
2021/01/10 03:09:18;;;;;;;49.42;18.20;;;-4.10;99.90;;;;;;4174044;28;20547;-38
2021/01/10 03:11:21;;;;;;;47.53;18.20;;;-4.10;99.90;;;;;;4174504;28;20029;-38
2021/01/10 03:13:22;;;;;;;44.65;16.60;;;-4.10;99.90;;;;;;4174384;28;20033;-38
2021/01/10 03:15:24;;;;;;;45.25;16.40;;;-4.10;99.90;;;;;;4174538;28;20489;-41
2021/01/10 03:17:34;;;;;;;43.53;16.88;;;-4.10;99.90;;;;;;4174620;28;20075;-37
2021/01/10 03:19:35;;;;;;;50.28;19.15;;;-4.10;99.90;;;;;;4174075;28;20040;-36
2021/01/10 03:21:36;;;;;;;50.63;18.20;;;-4.10;99.90;;;;;;4174338;28;20029;-36
2021/01/10 03:23:37;;;;;;;44.45;16.67;;;-4.10;99.90;;;;;;4174187;28;20033;-37
2021/01/10 03:25:39;;;;;;;46.10;16.80;;;-4.00;99.90;;;;;;4172402;28;20041;-39
2021/01/10 03:27:40;;;;;;;50.30;18.75;;;-4.00;99.90;;;;;;4173808;28;20448;-55
2021/01/10 03:29:41;;;;;;;47.67;18.98;;;-3.90;99.90;;;;;;4174308;28;20033;-37
2021/01/10 03:31:42;;;;;;;42.13;18.33;;;-3.90;99.90;;;;;;4174269;28;20071;-37
2021/01/10 03:33:46;;;;;;;44.97;18.13;;;-3.90;99.90;;;;;;4174164;28;20037;-38
2021/01/10 03:35:48;;;;;;;52.80;18.55;;;-3.90;99.90;;;;;;4173399;28;20440;-38
2021/01/10 03:37:49;;;;;;;49.47;19.52;;;-3.80;99.90;;;;;;4173904;28;20036;-37
2021/01/10 03:39:50;;;;;;;45.92;17.77;;;-3.80;99.90;;;;;;4173637;28;20475;-37
2021/01/10 03:41:52;;;;;;;47.78;17.83;;;-3.80;99.90;;;;;;4173357;28;20045;-36
2021/01/10 03:43:53;;;;;;;46.28;19.05;;;-3.70;99.90;;;;;;4173649;28;20110;-38
2021/01/10 03:45:54;;;;;;;44.97;16.45;;;-3.70;99.90;;;;;;4174409;28;20033;-36
2021/01/10 03:47:55;;;;;;;42.60;16.42;;;-3.70;99.90;;;;;;4173833;28;20436;-36
2021/01/10 03:49:56;;;;;;;46.17;16.95;;;-3.70;99.90;;;;;;4173842;28;20041;-38
2021/01/10 03:51:58;;;;;;;45.72;17.17;;;-3.70;99.90;;;;;;4173586;28;20086;-37
2021/01/10 03:53:59;;;;;;;42.90;17.13;;;-3.70;99.90;;;;;;4173381;28;20041;-36
2021/01/10 03:56:00;;;;;;;43.95;17.95;;;-3.70;99.90;;;;;;4173922;28;20045;-36
2021/01/10 03:58:01;;;;;;;46.00;17.30;;;-3.70;99.90;;;;;;4172865;28;20044;-36
2021/01/10 04:00:08;;;;;;;44.95;18.25;;;-3.70;99.90;;;;;;4174238;28;20262;-36
2021/01/10 04:02:09;;;;;;;44.03;17.27;;;-3.60;99.90;;;;;;4173455;28;20053;-36
2021/01/10 04:04:10;;;;;;;52.53;18.20;;;-3.60;99.90;;;;;;4173073;28;20045;-36
2021/01/10 04:06:11;;;;;;;43.38;16.45;;;-3.60;99.90;;;;;;4173777;28;20049;-36
2021/01/10 04:08:13;;;;;;;46.17;16.67;;;-3.70;99.90;;;;;;4173569;28;20102;-37
2021/01/10 04:10:14;;;;;;;42.88;16.15;;;-3.70;99.90;;;;;;4173470;28;20025;-35
2021/01/10 04:12:15;;;;;;;46.00;17.92;;;-3.70;99.90;;;;;;4173603;28;20045;-36
2021/01/10 04:14:16;;;;;;;44.20;18.05;;;-3.60;99.90;;;;;;4173546;28;20098;-35
2021/01/10 04:16:18;;;;;;;47.33;18.77;;;-3.60;99.90;;;;;;4173378;28;20461;-36
2021/01/10 04:18:19;;;;;;;43.60;18.23;;;-3.60;99.90;;;;;;4173771;28;20033;-36
2021/01/10 04:20:20;;;;;;;44.05;17.02;;;-3.60;99.90;;;;;;4173504;28;20534;-38
2021/01/10 04:22:22;;;;;;;50.13;17.83;;;-3.60;99.90;;;;;;4172331;28;20037;-36
2021/01/10 04:24:23;;;;;;;45.95;17.35;;;-3.70;99.90;;;;;;4173276;28;20033;-43
2021/01/10 04:26:24;;;;;;;45.40;17.73;;;-3.70;99.90;;;;;;4172822;28;20033;-37
2021/01/10 04:28:25;;;;;;;51.70;19.02;;;-3.70;99.90;;;;;;4172694;28;20045;-36
2021/01/10 04:30:26;;;;;;;52.67;18.08;;;-3.80;99.90;;;;;;4173291;28;20486;-37
2021/01/10 04:32:28;;;;;;;50.03;19.13;;;-3.80;99.90;;;;;;4173388;28;20074;-36
2021/01/10 04:34:29;;;;;;;50.15;17.67;;;-3.80;99.90;;;;;;4172862;28;20032;-38
2021/01/10 04:36:30;;;;;;;53.67;19.50;;;-3.70;99.90;;;;;;4172928;28;20102;-37
2021/01/10 04:38:31;;;;;;;49.65;19.25;;;-3.80;99.90;;;;;;4172961;28;20087;-37
2021/01/10 04:40:34;;;;;;;45.03;16.30;;;-3.70;99.90;;;;;;4172958;28;20484;-36
2021/01/10 04:42:37;;;;;;;51.65;18.90;;;-3.70;99.90;;;;;;4172858;28;20532;-37
2021/01/10 04:44:38;;;;;;;51.58;18.60;;;-3.60;99.90;;;;;;4172467;28;20048;-45
2021/01/10 04:46:41;;;;;;;51.05;18.38;;;-3.70;99.90;;;;;;4173066;28;20366;-42
2021/01/10 04:48:44;;;;;;;49.92;18.67;;;-3.70;99.90;;;;;;4172723;28;20424;-36
2021/01/10 04:50:45;;;;;;;48.80;17.83;;;-3.70;99.90;;;;;;4172442;28;20033;-38
2021/01/10 04:52:52;;;;;;;50.78;18.80;;;-3.70;99.90;;;;;;4172381;28;20056;-36
2021/01/10 04:54:56;;;;;;;45.08;17.95;;;-3.70;99.90;;;;;;4172641;28;20029;-38
2021/01/10 04:57:02;;;;;;;50.03;18.13;;;-3.80;99.90;;;;;;4172012;28;20045;-38
2021/01/10 04:59:05;;;;;;;46.35;18.08;;;-3.80;99.90;;;;;;4173246;28;20060;-37
2021/01/10 05:01:12;;;;;;;48.63;18.08;;;-3.80;99.90;;;;;;4172844;28;20090;-53
2021/01/10 05:03:16;;;;;;;48.17;18.58;;;-3.80;99.90;;;;;;4172617;28;20095;-66
2021/01/10 05:05:18;;;;;;;50.78;19.30;;;-3.90;99.90;;;;;;4172608;28;20055;-58
2021/01/10 05:07:19;;;;;;;46.75;17.23;;;-3.90;99.90;;;;;;4172264;28;20075;-41
2021/01/10 05:09:23;;;;;;;47.58;17.67;;;-3.90;99.90;;;;;;4172567;28;20029;-39
2021/01/10 05:11:24;;;;;;;45.55;18.83;;;-3.90;99.90;;;;;;4172206;28;20087;-50
2021/01/10 05:13:25;;;;;;;48.60;19.33;;;-3.80;99.90;;;;;;4171924;28;20029;-38
2021/01/10 05:15:27;;;;;;;47.85;18.50;;;-3.80;99.90;;;;;;4172505;28;20435;-37
2021/01/10 05:17:28;;;;;;;49.90;18.20;;;-3.80;99.90;;;;;;4172436;28;20095;-37
2021/01/10 05:19:30;;;;;;;50.05;19.58;;;-3.80;99.90;;;;;;4172475;28;20090;-37
2021/01/10 05:21:32;;;;;;;49.72;18.38;;;-3.80;99.90;;;;;;4171843;28;20042;-38
2021/01/10 05:23:34;;;;;;;49.88;18.90;;;-3.80;99.90;;;;;;4171907;28;20049;-38
2021/01/10 05:25:35;;;;;;;52.03;19.33;;;-3.80;99.90;;;;;;4172224;28;20044;-38
2021/01/10 05:27:37;;;;;;;53.58;17.52;;;-3.80;99.90;;;;;;4172449;28;20056;-38
2021/01/10 05:29:41;;;;;;;49.33;18.35;;;-3.80;99.90;;;;;;4172609;28;20063;-44
2021/01/10 05:31:45;;;;;;;48.30;18.58;;;-3.80;99.90;;;;;;4172094;28;20063;-34
2021/01/10 05:33:47;;;;;;;44.83;18.42;;;-3.80;99.90;;;;;;4172027;28;20078;-39
2021/01/10 05:35:56;;;;;;;51.75;19.30;;;-3.80;99.90;;;;;;4171496;28;20820;-41
2021/01/10 05:37:58;;;;;;;56.90;19.77;;;-3.90;99.90;;;;;;4171440;28;20099;-51
2021/01/10 05:39:59;;;;;;;61.80;20.80;;;-3.90;99.90;;;;;;4171346;28;20021;-59
2021/01/10 05:42:03;;;;;;;51.15;19.70;;;-3.90;99.90;;;;;;4171693;28;20484;-51
2021/01/10 05:44:05;;;;;;;57.42;19.98;;;-4.00;99.90;;;;;;4171456;28;20033;-36
2021/01/10 05:46:16;;;;;;;53.38;19.88;;;-4.00;99.90;;;;;;4172302;28;20025;-37
2021/01/10 05:48:18;;;;;;;62.95;20.00;;;-4.00;99.90;;;;;;4155223;28;20722;-36
2021/01/10 05:50:20;;;;;;;54.60;18.77;;;-4.00;99.90;;;;;;4158405;28;20087;-55
2021/01/10 05:52:22;;;;;;;67.10;20.50;;;-4.00;99.90;;;;;;4159397;28;20548;-37
2021/01/10 05:54:39;;;;;;;57.70;19.60;;;-4.10;99.90;;;;;;4159211;28;20045;-56
2021/01/10 05:56:41;;;;;;;55.97;20.52;;;-4.10;99.90;;;;;;4174828;28;20579;-37
2021/01/10 05:58:43;;;;;;;57.33;19.63;;;-4.10;99.90;;;;;;4174920;28;20029;-36
2021/01/10 06:00:46;;;;;;;59.47;19.45;;;-4.10;99.90;;;;;;4176098;28;20041;-36
2021/01/10 06:02:47;;;;;;;60.13;21.52;;;-4.10;99.90;;;;;;4175696;28;20021;-36
2021/01/10 06:04:48;;;;;;;67.90;23.35;;;-4.10;99.90;;;;;;4175141;28;20505;-35
2021/01/10 06:06:50;;;;;;;58.13;22.48;;;-4.20;99.90;;;;;;4174830;28;20036;-37
2021/01/10 06:08:58;;;;;;;58.80;22.58;;;-4.20;99.90;;;;;;4174916;28;20527;-37
2021/01/10 06:11:28;;;;;;;60.15;22.75;;;-4.20;99.90;;;;;;4174515;28;20490;-37
2021/01/10 06:13:30;;;;;;;51.55;18.60;;;-4.10;99.90;;;;;;4206517;28;20082;-51
2021/01/10 06:15:33;;;;;;;57.47;21.90;;;-4.20;99.90;;;;;;4175025;28;20067;-37
2021/01/10 06:17:41;;;;;;;58.22;19.50;;;-4.20;99.90;;;;;;4175493;28;20033;-58
2021/01/10 06:19:45;;;;;;;68.82;24.55;;;-4.10;99.90;;;;;;4174687;28;20087;-47
2021/01/10 06:21:50;;;;;;;60.58;22.83;;;-4.10;99.90;;;;;;4175287;28;20063;-38
2021/01/10 06:23:59;;;;;;;66.82;22.83;;;-4.20;99.90;;;;;;4174923;28;20028;-38
2021/01/10 06:26:01;;;;;;;55.75;21.58;;;-4.20;99.90;;;;;;4174784;28;20375;-38
2021/01/10 06:28:09;;;;;;;63.85;21.05;;;-4.20;99.90;;;;;;4174379;28;20107;-40
2021/01/10 06:30:16;;;;;;;70.95;20.60;;;-4.20;99.90;;;;;;4174959;28;20033;-36
2021/01/10 06:32:18;;;;;;;65.93;22.10;;;-4.30;99.90;;;;;;4173750;28;20110;-39
2021/01/10 06:34:20;;;;;;;61.33;21.23;;;-4.30;99.90;;;;;;4173539;28;20049;-37
2021/01/10 06:36:24;;;;;;;68.07;21.38;;;-4.30;99.90;;;;;;4173806;28;20045;-37
2021/01/10 06:38:35;;;;;;;65.28;21.90;;;-4.30;99.90;;;;;;4174101;28;20041;-45
2021/01/10 06:40:37;;;;;;;;;;;-4.30;99.90;;;;;;4175092;28;20083;-36
2021/01/10 06:42:43;;;;;;;90.82;21.90;;;-4.30;99.90;;;;;;4173430;28;19939;-37
2021/01/10 06:44:46;;;;;;;65.60;20.58;;;-4.30;99.90;;;;;;4174588;28;20519;-37
2021/01/10 06:46:55;;;;;;;65.50;20.30;;;-4.40;99.90;;;;;;4174769;28;20037;-36
2021/01/10 06:48:56;;;;;;;62.75;21.38;;;-4.30;99.90;;;;;;4174748;28;20045;-36
2021/01/10 06:51:02;;;;;;;83.65;21.85;;;-4.30;99.90;;;;;;4174404;28;20096;-39
2021/01/10 06:53:09;;;;;;;59.75;22.38;;;-4.20;99.90;;;;;;4173852;28;20111;-39
2021/01/10 06:55:10;;;;;;;94.22;25.20;;;-4.20;99.90;;;;;;4174188;28;20045;-36
2021/01/10 06:57:14;;;;;;;238.43;29.65;;;-4.10;99.90;;;;;;4174476;28;20036;-45
2021/01/10 06:59:25;;;;;;;103.65;26.05;;;-4.10;99.90;;;;;;4174398;28;20037;-47
2021/01/10 07:01:50;;;;;;;68.90;21.83;;;-4.10;99.90;;;;;;4173813;28;20440;-37
2021/01/10 07:03:57;;;;;;;73.63;24.23;;;-4.10;99.90;;;;;;4174543;28;20582;-36
2021/01/10 07:06:07;;;;;;;76.50;24.00;;;-4.10;99.90;;;;;;4174547;28;20042;-39
2021/01/10 07:08:31;;;;;;;83.03;23.60;;;-4.00;99.90;;;;;;4174435;28;20607;-36
2021/01/10 07:10:32;;;;;;;66.22;21.63;;;-4.00;99.90;;;;;;4174087;28;20102;-47
2021/01/10 07:12:34;;;;;;;156.18;27.63;;;-4.00;99.90;;;;;;4174089;28;20122;-36
2021/01/10 07:14:35;;;;;;;99.10;25.60;;;-4.00;99.90;;;;;;4174513;28;20029;-37
2021/01/10 07:16:36;;;;;;;184.48;29.10;;;-4.00;99.90;;;;;;4173999;28;20056;-36
2021/01/10 07:18:59;;;;;;;126.78;28.10;;;-4.00;99.90;;;;;;4174254;28;20456;-36
2021/01/10 07:21:00;;;;;;;75.03;22.70;;;-4.10;99.90;;;;;;4174160;28;20428;-46
2021/01/10 07:23:27;;;;;;;125.68;25.83;;;-4.10;99.90;;;;;;4173992;28;20428;-37
2021/01/10 07:25:35;;;;;;;116.60;24.60;;;-4.00;99.90;;;;;;4173815;28;20461;-38
2021/01/10 07:27:37;;;;;;;90.55;22.63;;;-4.00;99.90;;;;;;4173765;28;20053;-36
2021/01/10 07:29:42;;;;;;;93.00;25.30;;;-4.10;99.90;;;;;;4173695;28;20029;-36
2021/01/10 07:32:03;;;;;;;146.80;26.65;;;-4.10;99.90;;;;;;4173597;28;20368;-38
2021/01/10 07:34:09;;;;;;;67.88;22.90;;;-4.00;99.90;;;;;;4174550;28;20040;-52
2021/01/10 07:36:11;;;;;;;72.10;24.67;;;-4.10;99.90;;;;;;4173347;28;20443;-37
2021/01/10 07:38:14;;;;;;;72.32;23.85;;;-4.00;99.90;;;;;;4173710;28;20079;-37
2021/01/10 07:40:23;;;;;;;74.82;24.75;;;-3.90;99.90;;;;;;4171312;28;20025;-37
2021/01/10 07:42:32;;;;;;;73.72;25.95;;;-3.90;99.90;;;;;;4173550;28;20470;-37
2021/01/10 07:44:53;;;;;;;75.70;23.70;;;-3.70;99.90;;;;;;4173569;28;20029;-47
2021/01/10 07:46:59;;;;;;;70.40;24.83;;;-3.70;99.90;;;;;;4173432;28;20804;-37
2021/01/10 07:49:06;;;;;;;70.00;23.00;;;-3.60;99.90;;;;;;4173285;28;20021;-37
2021/01/10 07:51:19;;;;;;;81.38;24.90;;;-3.50;99.90;;;;;;4172717;28;20045;-51
2021/01/10 07:53:20;;;;;;;73.70;24.77;;;-3.50;99.90;;;;;;4172787;28;20606;-38
2021/01/10 07:55:23;;;;;;;76.43;23.27;;;-3.50;99.90;;;;;;4155270;28;20037;-57
2021/01/10 07:57:25;;;;;;;67.28;23.73;;;-3.50;99.90;;;;;;4172862;28;20049;-37
2021/01/10 07:59:27;;;;;;;68.78;23.98;;;-3.40;99.90;;;;;;4172986;28;20040;-37
2021/01/10 08:01:49;;;;;;;70.82;23.92;;;-3.40;99.90;;;;;;4173661;28;20041;-38
2021/01/10 08:04:09;;;;;;;66.15;23.52;;;-3.40;99.90;;;;;;4156820;28;20063;-37
2021/01/10 08:06:10;;;;;;;92.35;34.88;;;-3.40;99.90;;;;;;4156486;28;20087;-37
2021/01/10 08:08:14;;;;;;;119.78;43.58;;;-3.40;99.90;;;;;;4156618;28;20084;-37
2021/01/10 08:10:15;;;;;;;90.68;35.85;;;-3.20;99.90;;;;;;4156109;28;20049;-36
2021/01/10 08:12:31;;;;;;;73.38;26.83;;;-3.10;99.90;;;;;;4155266;28;20577;-37
2021/01/10 08:14:32;;;;;;;67.68;25.80;;;-2.90;99.90;;;;;;4171802;28;20040;-37
2021/01/10 08:16:33;;;;;;;77.15;28.48;;;-2.90;99.90;;;;;;4170736;28;20048;-38
2021/01/10 08:18:43;;;;;;;73.07;28.48;;;-2.80;99.90;;;;;;4172713;28;20079;-38
2021/01/10 08:20:44;;;;;;;71.22;27.42;;;-2.70;99.90;;;;;;4172102;28;20029;-41
2021/01/10 08:22:48;;;;;;;69.67;23.97;;;-2.70;99.90;;;;;;4172664;28;20551;-37
2021/01/10 08:24:49;;;;;;;65.47;23.98;;;-2.60;99.90;;;;;;4171880;28;21294;-53
2021/01/10 08:26:51;;;;;;;58.70;22.90;;;-2.70;99.90;;;;;;4172485;28;20044;-55
2021/01/10 08:28:52;;;;;;;60.30;22.25;;;-2.70;99.90;;;;;;4172660;28;20804;-37
2021/01/10 08:31:01;;;;;;;70.53;24.63;;;-2.70;99.90;;;;;;4173768;28;21479;-37
2021/01/10 08:33:02;;;;;;;68.03;25.00;;;-2.80;99.90;;;;;;4171321;28;20103;-38
2021/01/10 08:35:05;;;;;;;60.67;24.10;;;-2.80;99.90;;;;;;4173086;28;20270;-37
2021/01/10 08:37:07;;;;;;;58.63;22.67;;;-2.90;99.90;;;;;;4172417;28;20285;-47
2021/01/10 08:39:14;;;;;;;70.13;24.17;;;-2.90;99.90;;;;;;4172118;28;20033;-38
2021/01/10 08:41:27;;;;;;;63.90;24.30;;;-2.90;99.90;;;;;;4172626;28;20469;-39
2021/01/10 08:43:28;;;;;;;61.10;23.70;;;-2.90;99.90;;;;;;4172040;28;20258;-66
2021/01/10 08:45:30;;;;;;;63.97;23.50;;;-2.90;99.90;;;;;;4172217;28;20814;-42
2021/01/10 08:47:37;;;;;;;66.30;25.10;;;-2.80;99.90;;;;;;4172438;28;20266;-39
2021/01/10 08:49:39;;;;;;;66.63;24.55;;;-2.80;99.90;;;;;;4171836;28;20037;-41
2021/01/10 08:51:42;;;;;;;58.63;22.30;;;-2.70;99.90;;;;;;4172329;28;20496;-39
2021/01/10 08:53:43;;;;;;;66.63;23.80;;;-2.70;99.90;;;;;;4171336;28;20262;-39
2021/01/10 08:55:44;;;;;;;65.77;23.70;;;-2.60;99.90;;;;;;4172116;28;20312;-38
2021/01/10 08:57:46;;;;;;;67.40;23.83;;;-2.60;99.90;;;;;;4170945;28;20293;-39
2021/01/10 08:59:48;;;;;;;65.90;23.17;;;-2.60;99.90;;;;;;4171093;28;20274;-45
2021/01/10 09:01:50;;;;;;;64.10;22.63;;;-2.50;99.90;;;;;;4172704;28;20609;-39
2021/01/10 09:04:02;;;;;;;53.47;21.03;;;-2.60;99.90;;;;;;4171801;28;20343;-39
2021/01/10 09:06:04;;;;;;;57.23;23.50;;;-2.60;99.90;;;;;;4172108;28;21293;-42
2021/01/10 09:08:10;;;;;;;61.43;24.10;;;-2.50;99.90;;;;;;4171485;28;21044;-37
2021/01/10 09:10:12;;;;;;;59.07;23.33;;;-2.50;99.90;;;;;;4170601;28;20721;-37
2021/01/10 09:12:39;;;;;;;64.70;23.50;;;-2.50;99.90;;;;;;4171381;28;20274;-42
2021/01/10 09:15:04;;;;;;;59.80;22.17;;;-2.60;99.90;;;;;;4171835;28;20278;-39
2021/01/10 09:17:07;;;;;;;64.00;25.63;;;-2.50;99.90;;;;;;4171557;28;20290;-48
2021/01/10 09:19:09;;;;;;;69.87;28.53;;;-2.40;99.90;;;;;;4171444;28;20387;-44
2021/01/10 09:21:15;;;;;;;66.57;26.27;;;-2.30;99.90;;;;;;4171294;28;20266;-50
2021/01/10 09:23:18;;;;;;;73.33;26.60;;;-2.30;99.90;;;;;;4172019;28;20262;-40
2021/01/10 09:25:20;;;;;;;71.80;27.97;;;-2.30;99.90;;;;;;4170316;28;20284;-46
2021/01/10 09:27:21;;;;;;;73.47;26.90;;;-2.30;99.90;;;;;;4171666;28;20308;-48
2021/01/10 09:29:22;;;;;;;81.10;28.73;;;-2.20;99.90;;;;;;4170926;28;20270;-38
2021/01/10 09:31:45;;;;;;;77.70;29.30;;;-2.20;99.90;;;;;;4171552;28;20274;-37
2021/01/10 09:33:54;;;;;;;74.33;28.60;;;-2.20;99.90;;;;;;4171062;28;20383;-38
2021/01/10 09:35:58;;;;;;;68.47;27.10;;;-2.20;99.90;;;;;;4171435;28;20762;-38
2021/01/10 09:38:10;;;;;;;79.68;29.90;;;-2.30;99.90;;;;;;4170802;28;20848;-37
2021/01/10 09:40:12;;;;;;;69.73;27.63;;;-2.30;99.90;;;;;;4171718;28;20150;-38
2021/01/10 09:42:16;;;;;;;75.37;30.17;;;-2.40;99.90;;;;;;4171307;28;20696;-38
2021/01/10 09:44:18;;;;;;;70.73;26.23;;;-2.40;99.90;;;;;;4170712;28;20262;-35
2021/01/10 09:46:38;;;;;;;64.83;24.53;;;-2.40;99.90;;;;;;4170518;28;20274;-38
2021/01/10 09:48:39;;;;;;;67.83;25.70;;;-2.40;99.90;;;;;;4171561;28;20270;-37
2021/01/10 09:50:40;;;;;;;67.27;24.23;;;-2.40;99.90;;;;;;4170901;28;20278;-38
2021/01/10 09:52:52;;;;;;;61.53;23.57;;;-2.50;99.90;;;;;;4170352;28;20643;-37
2021/01/10 09:54:58;;;;;;;55.13;20.30;;;-2.60;99.90;;;;;;4171226;28;20860;-45
2021/01/10 09:57:01;;;;;;;50.90;21.87;;;-2.70;99.90;;;;;;4171401;28;20843;-38
2021/01/10 09:59:03;;;;;;;46.90;19.47;;;-2.70;99.90;;;;;;4171211;28;20266;-37
2021/01/10 10:01:08;;;;;;;55.78;20.75;;;-2.70;99.90;;;;;;4172173;28;20274;-38
2021/01/10 10:03:11;;;;;;;51.27;18.97;;;-2.80;99.90;;;;;;4171761;28;20485;-39
2021/01/10 10:05:22;;;;;;;50.90;17.85;;;-2.90;99.90;;;;;;4171000;28;20340;-37
2021/01/10 10:07:29;;;;;;;;;;;-2.90;99.90;;;;;;4172195;28;20041;-36
2021/01/10 10:09:50;;;;;;;57.08;19.90;;;-3.00;99.90;;;;;;4171444;28;19908;-37
2021/01/10 10:12:06;;;;;;;56.92;20.05;;;-3.10;99.90;;;;;;4171803;28;20045;-40
2021/01/10 10:14:08;;;;;;;48.85;18.25;;;-3.10;99.90;;;;;;4171664;28;20025;-39
2021/01/10 10:16:16;;;;;;;49.72;17.48;;;-3.30;99.90;;;;;;4171938;28;20036;-43
2021/01/10 10:18:19;;;;;;;54.58;20.45;;;-3.30;99.90;;;;;;4171461;28;20919;-39
2021/01/10 10:20:22;;;;;;;53.80;20.17;;;-3.40;99.90;;;;;;4171160;28;20455;-37
2021/01/10 10:22:25;;;;;;;52.78;19.92;;;-3.40;99.90;;;;;;4171278;28;20079;-38
2021/01/10 10:24:26;;;;;;;56.17;21.27;;;-3.40;99.90;;;;;;4171191;28;20095;-38
2021/01/10 10:26:27;;;;;;;54.20;20.05;;;-3.40;99.90;;;;;;4171237;28;20082;-42
2021/01/10 10:28:28;;;;;;;51.97;20.25;;;-3.40;99.90;;;;;;4170877;28;20103;-47
2021/01/10 10:30:29;;;;;;;56.75;20.77;;;-3.40;99.90;;;;;;4171156;28;20033;-38
2021/01/10 10:32:31;;;;;;;46.55;19.98;;;-3.40;99.90;;;;;;4171888;28;20033;-48